Accueil
METAR-TAF:

METAR-TAF

Aéroports :

Aéroport de Porto Santo

Porto Santo, Portugal

latitude: 33-04N, longitude: 016-21W, altitude: 97 m

Observation

Le bulletin a été fait il y a 32 minutes, à 17:00 UTC
Vent 9 kt de est/sud-est
Température 17°C
Humidité 52%
Pression 1026 hPa
Visibilité 10 km ou plus
Quelques nuages à une hauteur de 1500 ft

METAR: LPPS 021700Z 11009KT 9999 FEW015 17/07 Q1026

Heure: 17:32 (17:32 UTC)

Prévision

Le bulletin a été fait il y a 6 heures et 32 minutes, à 11:00 UTC
Prévision valable du 02 à 12 UTC au 03 à 18 UTC
Vent 13 kt de est
Visibilité 10 km ou plus
Nuages épars à une hauteur de 1500 ft
Probabilité 30% :
Temporairement
du 02 à 12 UTC au 03 à 18 UTC
Visibilité: 8000 m
Nuages fragmentés à une hauteur de 1500 ft
Quelques nuages à une hauteur de 1800 ft, Cumulus congestus.
averses de pluie

TAF: LPPS 021100Z 0212/0318 09013KT 9999 SCT015 PROB30 TEMPO 0212/0318 8000 SHRA BKN015 FEW018TCU

Observations et prévisions météorologiques de plus de 4000 aéroports (messages METAR et TAF).

Les stations disponibles sont représentées par des disques jaunes et rouges sur la carte.

Passer la souris dessus pour voir le nom de la station.

Cliquer dessus pour voir les observations et prévisions météorologiques.

Pour changer de carte: cliquez sur les boutons verts avec une croix noire pour zoomer, sur le bouton vert avec un tiret pour effectuer un zoom arrière, ou sur les flèches vertes pour les cartes adjacentes.


METAR-TAF: